Westminster, CO

10:28 PM MDT on September 20, 2014 (GMT -0600)
Jeffco | Change Station
CLOSE
Current Station
Airport
Location: Broomfield,
Elevation: 5656 ft
Nearby Weather Stations

Elev 5656 ft 39.90 °N, 105.10 °W | Updated 43 minutes ago

Overcast
Overcast
70 °F
Feels Like 70 °F
N
8
Wind Variable Wind from SSE

Today
High -- | Low -- °F
--% Chance of Precip.
Yesterday
High -- | Low -- °F
Precip. -- in
6:46 AM 7:00 PM
Waning Crescent, 9% visible
Pressure 30.34 in
Visibility 30.0 miles
Clouds Few 9000 ft
Dew Point 48 °F
Humidity 46%
Rainfall 0.00 in
Snow Depth 0 in , 0 in , 0 in
UV 0 out of 12
Pollen 6.70 out of 12
Ozone Good
PM2.5 Moderate
Flu Activity Not available.
METAR KBJC 210345Z 16007KT 30SM FEW090 21/09 A3034 RMK LAST

More Conditions Fewer Conditions

Pressure 30.34 in
Visibility 30.0 miles
Clouds Few 9000 ft
Dew Point 48 °F
Humidity 46%
Rainfall 0.00 in
Snow Depth 0 in , 0 in , 0 in
UV 0 out of 12
Pollen 6.70 out of 12
Ozone Good
PM2.5 Moderate
Flu Activity Not available.
METAR KBJC 210345Z 16007KT 30SM FEW090 21/09 A3034 RMK LAST

More Conditions Fewer Conditions

Nowcast | as of 9:28 PM MDT on September 20, 2014

An area of showers will affect the southern Denver suburbs and much of Douglas and western Elbert counties until midnight. A couple rumbles of thunder are still possible in western Elbert County...but overall precipitation coverage and intensity will be decreasing. Additional rainfall amounts will be a quarter inch or less.

×

10-Day Weather Forecast

Almanac

Astronomy

Sep. 20, 2014 Rise Set
Actual Time 6:46 AM MDT 7:00 PM MDT
Civil Twilight 6:19 AM MDT 7:27 PM MDT
Nautical Twilight 5:47 AM MDT 7:59 PM MDT
Astronomical Twilight 5:15 AM MDT 8:31 PM MDT
Moon 3:27 AM MDT (9/20) 5:05 PM MDT (9/20)
Length of Visible Light 13h 08m
Length of Day
12h 14m
Tomorrow will be 2m 36s shorter.
Waning Crescent, 9% of the Moon is Illuminated
Sep 21
Waning Crescent
Sep 24
New
Oct 1
First Quarter
Oct 8
Full
Oct 15
Last Quarter

Today's Extremes

State Highs State Lows

Community

WunderPhotos

Upload Photos

1,755,081 photos uploaded!

Nearby

Air Quality

  Air Quality AQ Index Pollutant
Yesterday Moderate
OZONE
Yesterday Good
PM10
Current Moderate
PM2.5
Current Good
OZONE
Saturday Moderate
OZONE
Saturday Good
PM2.5
Sunday Good
OZONE
Sunday Good
PM2.5
Monday Moderate
PM2.5
Monday Good
OZONE

Snow Depth

Station Depth Elevation
Willow Creek Pass 0 in 9540 ft
Copper Mountain 0 in 10500 ft
Beaver Divide 0 in 8280 ft
University Camp 0 in 10300 ft
Vail Mountain 87 in 10300 ft

Earthquake Activity

City Distance Mag. Time & Date
No recent earthquake activity has been reported nearby.
Minimum magnitude displayed is 2.5.

Coastal Water Temperatures

Place Temperature
No Stations Reporting

Nearby Weather Stations